Time;durP1;ratioP1;P1;durP2;ratioP2;P2;SDS_P1;SDS_P2;PMS_P1;PMS_P2;Temp;Humidity;BMP_temperature;BMP_pressure;BME280_temperature;BME280_humidity;BME280_pressure;Samples;Min_cycle;Max_cycle;Signal;HPM_P1;HPM_P2
2023/04/04 00:00:04;;;;;;;1.13;0.90;;;;;;;;;;5071674;28;20101;-70
2023/04/04 00:02:30;;;;;;;1.17;0.80;;;;;;;;;;5084208;28;20040;-71
2023/04/04 00:04:57;;;;;;;1.25;0.73;;;;;;;;;;5058816;28;20430;-70
2023/04/04 00:07:25;;;;;;;1.35;0.70;;;;;;;;;;5083257;28;20385;-70
2023/04/04 00:09:51;;;;;;;1.48;0.70;;;;;;;;;;5068402;28;20056;-70
2023/04/04 00:12:17;;;;;;;0.77;0.60;;;;;;;;;;5081413;28;20055;-70
2023/04/04 00:14:43;;;;;;;0.90;0.52;;;;;;;;;;5084897;28;20040;-70
2023/04/04 00:17:09;;;;;;;0.68;0.50;;;;;;;;;;5083802;28;20040;-70
2023/04/04 00:19:35;;;;;;;1.35;0.70;;;;;;;;;;5080887;28;20032;-70
2023/04/04 00:22:02;;;;;;;1.48;0.80;;;;;;;;;;5076450;28;20470;-70
2023/04/04 00:24:29;;;;;;;0.80;0.50;;;;;;;;;;5085699;28;20046;-70
2023/04/04 00:26:55;;;;;;;1.20;0.80;;;;;;;;;;5052471;28;20037;-70
2023/04/04 00:29:21;;;;;;;1.13;0.63;;;;;;;;;;5084104;28;20039;-70
2023/04/04 00:31:48;;;;;;;2.00;1.10;;;;;;;;;;5077925;28;20037;-70
2023/04/04 00:34:14;;;;;;;2.20;1.30;;;;;;;;;;5072090;28;20082;-71
2023/04/04 00:36:40;;;;;;;2.08;1.10;;;;;;;;;;5082601;28;20112;-71
2023/04/04 00:39:06;;;;;;;2.75;1.40;;;;;;;;;;5084083;28;20090;-70
2023/04/04 00:41:32;;;;;;;2.28;1.40;;;;;;;;;;5080351;28;20037;-70
2023/04/04 00:43:59;;;;;;;2.10;1.10;;;;;;;;;;5071254;28;20083;-71
2023/04/04 00:46:26;;;;;;;2.90;1.30;;;;;;;;;;5079943;28;20460;-71
2023/04/04 00:48:53;;;;;;;3.20;1.48;;;;;;;;;;5077556;28;20561;-70
2023/04/04 00:51:19;;;;;;;3.47;1.70;;;;;;;;;;5077360;28;20059;-70
2023/04/04 00:53:46;;;;;;;2.80;1.70;;;;;;;;;;5089441;28;20137;-70
2023/04/04 00:56:13;;;;;;;2.95;1.83;;;;;;;;;;5068953;28;20062;-71
2023/04/04 00:58:39;;;;;;;3.67;2.08;;;;;;;;;;5082665;28;20519;-71
2023/04/04 01:01:05;;;;;;;;;;;;;;;;;;5079040;28;20444;-71
2023/04/04 01:03:32;;;;;;;3.67;1.63;;;;;;;;;;5077253;28;19920;-71
2023/04/04 01:05:59;;;;;;;4.03;2.35;;;;;;;;;;5073598;28;20048;-71
2023/04/04 01:08:25;;;;;;;;;;;;;;;;;;5057522;28;20128;-70
2023/04/04 01:10:51;;;;;;;3.15;1.77;;;;;;;;;;5079111;28;19920;-70
2023/04/04 01:13:17;;;;;;;3.28;1.75;;;;;;;;;;5085450;28;20495;-71
2023/04/04 01:15:43;;;;;;;4.65;1.77;;;;;;;;;;5075398;28;20069;-71
2023/04/04 01:18:11;;;;;;;4.60;2.20;;;;;;;;;;5071350;28;20124;-71
2023/04/04 01:20:42;;;;;;;2.67;1.80;;;;;;;;;;5057599;28;20392;-71
2023/04/04 01:23:09;;;;;;;3.17;1.70;;;;;;;;;;5072102;28;20048;-71
2023/04/04 01:25:35;;;;;;;2.90;1.90;;;;;;;;;;5055967;28;20106;-71
2023/04/04 01:28:01;;;;;;;2.65;1.80;;;;;;;;;;5078034;28;20051;-71
2023/04/04 01:30:29;;;;;;;3.65;1.90;;;;;;;;;;5063350;28;20040;-71
2023/04/04 01:33:08;;;;;;;3.03;1.92;;;;;;;;;;5080153;28;20043;-71
2023/04/04 01:35:34;;;;;;;3.22;1.83;;;;;;;;;;5071089;28;20121;-71
2023/04/04 01:38:00;;;;;;;4.07;2.20;;;;;;;;;;5079996;28;20036;-71
2023/04/04 01:40:28;;;;;;;3.63;1.98;;;;;;;;;;5086557;28;20046;-71
2023/04/04 01:42:54;;;;;;;3.92;1.98;;;;;;;;;;5087287;28;20032;-71
2023/04/04 01:45:21;;;;;;;3.72;2.45;;;;;;;;;;5079221;28;20123;-71
2023/04/04 01:47:48;;;;;;;3.95;2.20;;;;;;;;;;5061290;28;20091;-71
2023/04/04 01:50:14;;;;;;;5.15;2.00;;;;;;;;;;5071076;28;20446;-71
2023/04/04 01:52:40;;;;;;;3.15;1.92;;;;;;;;;;5073770;28;20380;-71
2023/04/04 01:55:07;;;;;;;3.85;2.20;;;;;;;;;;5071798;28;20058;-71
2023/04/04 01:57:33;;;;;;;4.22;2.35;;;;;;;;;;5047569;28;20032;-72
2023/04/04 02:00:00;;;;;;;4.15;2.20;;;;;;;;;;5088616;28;20036;-71
2023/04/04 02:02:26;;;;;;;4.03;2.30;;;;;;;;;;5083982;28;20040;-71
2023/04/04 02:04:52;;;;;;;4.93;2.50;;;;;;;;;;5070539;28;20044;-71
2023/04/04 02:07:18;;;;;;;3.92;2.38;;;;;;;;;;5082958;28;20078;-72
2023/04/04 02:09:45;;;;;;;3.17;2.10;;;;;;;;;;5078512;28;20206;-72
2023/04/04 02:12:11;;;;;;;4.82;2.20;;;;;;;;;;5053531;28;20040;-71
2023/04/04 02:14:37;;;;;;;;;;;;;;;;;;5079521;28;20078;-71
2023/04/04 02:17:03;;;;;;;4.13;2.30;;;;;;;;;;5070705;28;20037;-71
2023/04/04 02:19:29;;;;;;;3.90;2.22;;;;;;;;;;5078482;28;20461;-71
2023/04/04 02:21:56;;;;;;;3.97;2.25;;;;;;;;;;5082427;28;20039;-71
2023/04/04 02:24:22;;;;;;;;;;;;;;;;;;5082123;28;20109;-71
2023/04/04 02:26:48;;;;;;;3.42;2.10;;;;;;;;;;5088158;28;19946;-71
2023/04/04 02:29:14;;;;;;;4.28;1.95;;;;;;;;;;5059344;28;20127;-71
2023/04/04 02:31:40;;;;;;;3.15;1.98;;;;;;;;;;5072014;28;20314;-71
2023/04/04 02:34:06;;;;;;;3.08;1.98;;;;;;;;;;5072364;28;20135;-71
2023/04/04 02:36:32;;;;;;;2.97;2.05;;;;;;;;;;5070076;28;20486;-71
2023/04/04 02:38:59;;;;;;;4.05;1.80;;;;;;;;;;5080052;28;20090;-71
2023/04/04 02:41:25;;;;;;;3.05;1.60;;;;;;;;;;5069734;28;20083;-71
2023/04/04 02:43:51;;;;;;;4.45;1.70;;;;;;;;;;5075475;28;20040;-71
2023/04/04 02:46:17;;;;;;;2.90;2.00;;;;;;;;;;5074538;28;20043;-71
2023/04/04 02:48:43;;;;;;;;;;;;;;;;;;5078854;28;20044;-71
2023/04/04 02:51:10;;;;;;;3.58;1.95;;;;;;;;;;5056156;28;20019;-71
2023/04/04 02:53:36;;;;;;;2.97;1.55;;;;;;;;;;5073768;28;20086;-71
2023/04/04 02:56:02;;;;;;;2.00;1.13;;;;;;;;;;5076248;28;20063;-72
2023/04/04 02:58:29;;;;;;;1.65;1.20;;;;;;;;;;5083920;28;20491;-71
2023/04/04 03:00:55;;;;;;;1.55;1.05;;;;;;;;;;5059563;28;20033;-71
2023/04/04 03:03:21;;;;;;;1.35;0.90;;;;;;;;;;5079205;28;20455;-71
2023/04/04 03:05:48;;;;;;;2.55;1.58;;;;;;;;;;5070594;28;20492;-71
2023/04/04 03:08:15;;;;;;;2.33;1.60;;;;;;;;;;5072613;28;20067;-71
2023/04/04 03:10:41;;;;;;;1.63;1.25;;;;;;;;;;5083104;28;20063;-70
2023/04/04 03:13:07;;;;;;;1.45;1.10;;;;;;;;;;5079453;28;20052;-70
2023/04/04 03:15:33;;;;;;;2.05;1.08;;;;;;;;;;5079226;28;20047;-71
2023/04/04 03:18:00;;;;;;;1.50;1.08;;;;;;;;;;5078220;28;20040;-71
2023/04/04 03:20:26;;;;;;;2.45;1.40;;;;;;;;;;5087532;28;20036;-71
2023/04/04 03:22:52;;;;;;;2.85;1.50;;;;;;;;;;5079867;28;20119;-71
2023/04/04 03:25:18;;;;;;;2.22;1.50;;;;;;;;;;5069412;28;20040;-71
2023/04/04 03:27:45;;;;;;;3.63;1.92;;;;;;;;;;5074374;28;20041;-71
2023/04/04 03:30:11;;;;;;;2.83;1.50;;;;;;;;;;5077297;28;20498;-71
2023/04/04 03:32:38;;;;;;;1.67;1.25;;;;;;;;;;5082920;28;20069;-71
2023/04/04 03:35:04;;;;;;;3.47;1.58;;;;;;;;;;5069199;28;20044;-70
2023/04/04 03:37:31;;;;;;;2.42;1.70;;;;;;;;;;5077261;28;20032;-72
2023/04/04 03:39:57;;;;;;;2.65;1.60;;;;;;;;;;5070138;28;20051;-71
2023/04/04 03:42:23;;;;;;;3.08;1.77;;;;;;;;;;5075327;28;20071;-71
2023/04/04 03:44:49;;;;;;;3.45;1.95;;;;;;;;;;5072160;28;20067;-70
2023/04/04 03:47:15;;;;;;;1.83;1.27;;;;;;;;;;5069344;28;20044;-71
2023/04/04 03:49:41;;;;;;;2.38;1.30;;;;;;;;;;5070645;28;20036;-71
2023/04/04 03:52:07;;;;;;;2.03;1.23;;;;;;;;;;5051750;28;20036;-71
2023/04/04 03:54:33;;;;;;;2.45;1.00;;;;;;;;;;5082680;28;20390;-71
2023/04/04 03:56:59;;;;;;;1.13;0.80;;;;;;;;;;5078702;28;20120;-71
2023/04/04 03:59:25;;;;;;;1.67;1.05;;;;;;;;;;5071289;28;20051;-71
2023/04/04 04:01:51;;;;;;;1.60;0.80;;;;;;;;;;5073449;28;20056;-71
2023/04/04 04:04:17;;;;;;;1.27;0.65;;;;;;;;;;5085505;28;20073;-71
2023/04/04 04:06:43;;;;;;;1.63;0.80;;;;;;;;;;5056041;28;20060;-71
2023/04/04 04:09:13;;;;;;;0.77;0.55;;;;;;;;;;5084937;28;20055;-71
2023/04/04 04:11:39;;;;;;;0.75;0.50;;;;;;;;;;5077718;28;20438;-71
2023/04/04 04:14:05;;;;;;;0.68;0.50;;;;;;;;;;5066942;28;20383;-71
2023/04/04 04:16:31;;;;;;;0.82;0.60;;;;;;;;;;5089120;28;20458;-71
2023/04/04 04:18:57;;;;;;;;;;;;;;;;;;5080045;28;20479;-71
2023/04/04 04:21:25;;;;;;;0.60;0.50;;;;;;;;;;5078138;28;19929;-71
2023/04/04 04:23:51;;;;;;;0.43;0.40;;;;;;;;;;5058523;28;20094;-72
2023/04/04 04:26:17;;;;;;;0.60;0.50;;;;;;;;;;5086084;28;20379;-73
2023/04/04 04:28:43;;;;;;;0.95;0.57;;;;;;;;;;5086615;28;20043;-72
2023/04/04 04:31:09;;;;;;;1.70;0.73;;;;;;;;;;5072160;28;20052;-72
2023/04/04 04:33:35;;;;;;;;;;;;;;;;;;5072454;28;20154;-72
2023/04/04 04:36:05;;;;;;;0.95;0.70;;;;;;;;;;5060870;28;20086;-71
2023/04/04 04:38:32;;;;;;;1.45;0.70;;;;;;;;;;5076735;28;20046;-72
2023/04/04 04:40:58;;;;;;;1.13;0.63;;;;;;;;;;5059087;28;20036;-72
2023/04/04 04:43:25;;;;;;;0.73;0.50;;;;;;;;;;5057885;28;20041;-72
2023/04/04 04:45:51;;;;;;;1.05;0.60;;;;;;;;;;5076071;28;20052;-72
2023/04/04 04:48:17;;;;;;;1.30;0.77;;;;;;;;;;5075095;28;20456;-72
2023/04/04 04:50:47;;;;;;;1.17;0.50;;;;;;;;;;5080475;28;20104;-72
2023/04/04 04:53:13;;;;;;;0.75;0.50;;;;;;;;;;5080442;28;20356;-72
2023/04/04 04:55:41;;;;;;;1.08;0.50;;;;;;;;;;5080389;28;20301;-72
2023/04/04 04:58:09;;;;;;;1.10;0.70;;;;;;;;;;5079555;28;20043;-72
2023/04/04 05:00:36;;;;;;;0.70;0.60;;;;;;;;;;5076555;28;20071;-72
2023/04/04 05:03:05;;;;;;;1.10;0.60;;;;;;;;;;5063194;28;20098;-73
2023/04/04 05:05:32;;;;;;;1.35;0.70;;;;;;;;;;5075465;28;20044;-73
2023/04/04 05:07:58;;;;;;;1.80;1.00;;;;;;;;;;5074412;28;20450;-73
2023/04/04 05:10:24;;;;;;;1.35;0.60;;;;;;;;;;5073751;28;20046;-72
2023/04/04 05:12:50;;;;;;;1.33;0.70;;;;;;;;;;5077465;28;20055;-72
2023/04/04 05:15:16;;;;;;;0.90;0.68;;;;;;;;;;5054414;28;20587;-72
2023/04/04 05:17:42;;;;;;;1.38;0.68;;;;;;;;;;5087848;28;20046;-72
2023/04/04 05:20:08;;;;;;;1.13;0.70;;;;;;;;;;5072732;28;20048;-72
2023/04/04 05:22:34;;;;;;;0.65;0.60;;;;;;;;;;5088918;28;20090;-72
2023/04/04 05:25:01;;;;;;;0.63;0.52;;;;;;;;;;5071064;28;21144;-72
2023/04/04 05:27:27;;;;;;;1.23;0.55;;;;;;;;;;5086212;28;20075;-73
2023/04/04 05:29:53;;;;;;;0.63;0.50;;;;;;;;;;5079819;28;20044;-72
2023/04/04 05:32:19;;;;;;;1.20;0.90;;;;;;;;;;5076834;28;20045;-72
2023/04/04 05:34:45;;;;;;;1.60;0.90;;;;;;;;;;5081384;28;20432;-72
2023/04/04 05:37:11;;;;;;;1.15;0.60;;;;;;;;;;5067687;28;20032;-72
2023/04/04 05:39:38;;;;;;;1.88;1.00;;;;;;;;;;5080170;28;20174;-72
2023/04/04 05:42:04;;;;;;;1.65;0.75;;;;;;;;;;5058425;28;20086;-72
2023/04/04 05:44:30;;;;;;;1.35;0.80;;;;;;;;;;5079732;28;20502;-72
2023/04/04 05:46:56;;;;;;;1.02;0.60;;;;;;;;;;5077741;28;20052;-72
2023/04/04 05:49:22;;;;;;;0.80;0.55;;;;;;;;;;5079271;28;20083;-72
2023/04/04 05:51:48;;;;;;;1.00;0.63;;;;;;;;;;5075347;28;20040;-72
2023/04/04 05:54:14;;;;;;;1.52;0.60;;;;;;;;;;5078248;28;20067;-72
2023/04/04 05:56:40;;;;;;;1.00;0.52;;;;;;;;;;5078983;28;20518;-72
2023/04/04 05:59:06;;;;;;;1.92;0.65;;;;;;;;;;5068712;28;20047;-72
2023/04/04 06:01:32;;;;;;;1.50;0.90;;;;;;;;;;5071778;28;20033;-72
2023/04/04 06:03:59;;;;;;;0.90;0.70;;;;;;;;;;5077411;28;20048;-72
2023/04/04 06:06:26;;;;;;;1.00;0.52;;;;;;;;;;5078676;28;20056;-72
2023/04/04 06:08:52;;;;;;;0.98;0.60;;;;;;;;;;5073575;28;20101;-73
2023/04/04 06:11:18;;;;;;;1.50;0.70;;;;;;;;;;5055919;28;20046;-71
2023/04/04 06:13:44;;;;;;;1.67;0.80;;;;;;;;;;5086094;28;20459;-71
2023/04/04 06:16:11;;;;;;;1.67;0.85;;;;;;;;;;5069690;28;20078;-71
2023/04/04 06:18:37;;;;;;;2.28;1.05;;;;;;;;;;5076178;28;20101;-70
2023/04/04 06:21:03;;;;;;;3.13;1.75;;;;;;;;;;5058563;28;20040;-72
2023/04/04 06:23:29;;;;;;;5.22;1.60;;;;;;;;;;5081055;28;20047;-72
2023/04/04 06:25:55;;;;;;;;;;;;;;;;;;5083260;28;20037;-72
2023/04/04 06:28:22;;;;;;;2.80;1.45;;;;;;;;;;5068227;28;19924;-72
2023/04/04 06:30:49;;;;;;;2.92;1.42;;;;;;;;;;5070409;28;20646;-72
2023/04/04 06:33:15;;;;;;;2.72;1.40;;;;;;;;;;5063280;28;20040;-71
2023/04/04 06:35:41;;;;;;;3.33;1.17;;;;;;;;;;5073575;28;20090;-71
2023/04/04 06:38:08;;;;;;;2.33;1.30;;;;;;;;;;5054137;28;20039;-71
2023/04/04 06:40:35;;;;;;;3.05;1.63;;;;;;;;;;5060979;28;20074;-71
2023/04/04 06:43:01;;;;;;;3.92;1.50;;;;;;;;;;5076572;28;20053;-71
2023/04/04 06:45:28;;;;;;;3.15;1.60;;;;;;;;;;5076506;28;20050;-71
2023/04/04 06:47:54;;;;;;;3.60;1.55;;;;;;;;;;5071593;28;20174;-71
2023/04/04 06:50:21;;;;;;;3.85;1.50;;;;;;;;;;5072879;28;20604;-71
2023/04/04 06:52:48;;;;;;;3.63;2.00;;;;;;;;;;5055044;28;20069;-71
2023/04/04 06:55:14;;;;;;;4.63;1.77;;;;;;;;;;5068240;28;20048;-71
2023/04/04 06:57:40;;;;;;;4.10;1.70;;;;;;;;;;5071111;28;20071;-70
2023/04/04 07:00:08;;;;;;;4.30;1.55;;;;;;;;;;5076065;28;20048;-71
2023/04/04 07:02:34;;;;;;;3.30;1.60;;;;;;;;;;5075452;28;20052;-71
2023/04/04 07:05:00;;;;;;;2.60;1.33;;;;;;;;;;5075556;28;20121;-70
2023/04/04 07:07:26;;;;;;;2.55;1.23;;;;;;;;;;5074972;28;20044;-71
2023/04/04 07:09:52;;;;;;;2.97;1.10;;;;;;;;;;5054754;28;20064;-71
2023/04/04 07:12:18;;;;;;;2.03;1.20;;;;;;;;;;5063726;28;20044;-71
2023/04/04 07:14:44;;;;;;;2.35;1.30;;;;;;;;;;5075534;28;20120;-71
2023/04/04 07:17:10;;;;;;;2.53;1.30;;;;;;;;;;5070467;28;20134;-71
2023/04/04 07:19:36;;;;;;;3.03;1.10;;;;;;;;;;5072194;28;20039;-71
2023/04/04 07:22:02;;;;;;;5.20;1.30;;;;;;;;;;5074914;28;20051;-70
2023/04/04 07:24:29;;;;;;;2.70;0.93;;;;;;;;;;5074682;28;20067;-70
2023/04/04 07:26:55;;;;;;;2.88;1.27;;;;;;;;;;5055436;28;20032;-70
2023/04/04 07:29:21;;;;;;;3.47;1.27;;;;;;;;;;5059033;28;20062;-71
2023/04/04 07:31:47;;;;;;;1.92;1.05;;;;;;;;;;5073878;28;20040;-71
2023/04/04 07:34:13;;;;;;;1.75;1.02;;;;;;;;;;5072049;28;20033;-71
2023/04/04 07:36:39;;;;;;;2.50;1.10;;;;;;;;;;5072762;28;20488;-70
2023/04/04 07:39:05;;;;;;;2.50;1.15;;;;;;;;;;5070010;28;20104;-70
2023/04/04 07:41:32;;;;;;;1.95;1.08;;;;;;;;;;5072642;28;20357;-70
2023/04/04 07:43:58;;;;;;;5.07;1.10;;;;;;;;;;5058372;28;20036;-71
2023/04/04 07:46:26;;;;;;;3.60;1.73;;;;;;;;;;5068775;28;20101;-71
2023/04/04 07:48:52;;;;;;;2.47;1.20;;;;;;;;;;5075273;28;20059;-70
2023/04/04 07:51:27;;;;;;;4.93;1.45;;;;;;;;;;5059908;28;20036;-70
2023/04/04 07:53:53;;;;;;;2.30;1.00;;;;;;;;;;5068311;28;20040;-70
2023/04/04 07:56:20;;;;;;;;;;;;;;;;;;5078408;28;20044;-70
2023/04/04 07:58:46;;;;;;;2.92;1.27;;;;;;;;;;5083991;28;19966;-70
2023/04/04 08:01:13;;;;;;;1.70;0.95;;;;;;;;;;5079475;28;20041;-70
2023/04/04 08:03:42;;;;;;;2.83;1.17;;;;;;;;;;5081374;28;20040;-70
2023/04/04 08:06:08;;;;;;;3.22;1.20;;;;;;;;;;5071625;28;20048;-70
2023/04/04 08:08:34;;;;;;;2.38;1.10;;;;;;;;;;5059404;28;20493;-70
2023/04/04 08:11:00;;;;;;;2.05;1.10;;;;;;;;;;5072547;28;20083;-70
2023/04/04 08:13:26;;;;;;;4.45;1.20;;;;;;;;;;5076602;28;20773;-70
2023/04/04 08:15:52;;;;;;;1.95;0.93;;;;;;;;;;5067895;28;20063;-70
2023/04/04 08:18:30;;;;;;;6.13;1.85;;;;;;;;;;5062568;28;20438;-70
2023/04/04 08:20:56;;;;;;;2.55;1.20;;;;;;;;;;5071118;28;20052;-70
2023/04/04 08:23:22;;;;;;;2.30;1.20;;;;;;;;;;5060207;28;20093;-70
2023/04/04 08:25:48;;;;;;;3.08;1.17;;;;;;;;;;5085578;28;20166;-70
2023/04/04 08:28:21;;;;;;;3.13;1.35;;;;;;;;;;5082261;28;20131;-70
2023/04/04 08:30:47;;;;;;;1.92;1.25;;;;;;;;;;5085198;28;20507;-70
2023/04/04 08:33:13;;;;;;;3.03;1.30;;;;;;;;;;5076810;28;20383;-70
2023/04/04 08:35:39;;;;;;;2.70;1.20;;;;;;;;;;5068651;28;20109;-70
2023/04/04 08:38:07;;;;;;;2.67;1.23;;;;;;;;;;5058621;28;20064;-70
2023/04/04 08:40:33;;;;;;;2.45;1.15;;;;;;;;;;5068486;28;20044;-70
2023/04/04 08:42:59;;;;;;;;;;;;;;;;;;5074129;28;20044;-70
2023/04/04 08:45:27;;;;;;;4.22;1.15;;;;;;;;;;5068679;28;19920;-70
2023/04/04 08:47:54;;;;;;;3.53;1.30;;;;;;;;;;5087070;28;20051;-70
2023/04/04 08:50:20;;;;;;;2.72;1.00;;;;;;;;;;5089007;28;20126;-70
2023/04/04 08:52:46;;;;;;;;;;;;;;;;;;5086650;28;20491;-70
2023/04/04 08:55:13;;;;;;;2.72;1.10;;;;;;;;;;5090019;28;19931;-70
2023/04/04 08:57:39;;;;;;;1.90;0.98;;;;;;;;;;5082079;28;20487;-70
2023/04/04 09:00:06;;;;;;;2.70;1.20;;;;;;;;;;5073876;28;20052;-70
2023/04/04 09:02:32;;;;;;;2.67;0.98;;;;;;;;;;5083989;28;20043;-70
2023/04/04 09:05:00;;;;;;;1.75;0.90;;;;;;;;;;5074262;28;20036;-70
2023/04/04 09:07:27;;;;;;;1.40;0.90;;;;;;;;;;5084351;28;20148;-71
2023/04/04 09:09:53;;;;;;;2.60;1.00;;;;;;;;;;5072668;28;20041;-70
2023/04/04 09:12:21;;;;;;;;;;;;;;;;;;5073316;28;20047;-71
2023/04/04 09:14:47;;;;;;;;;;;;;;;;;;5087227;28;20403;-70
2023/04/04 09:17:13;;;;;;;2.15;1.00;;;;;;;;;;5058363;28;20007;-71
2023/04/04 09:19:39;;;;;;;3.40;1.20;;;;;;;;;;5082459;28;20086;-71
2023/04/04 09:22:09;;;;;;;3.03;1.13;;;;;;;;;;5077319;28;20116;-71
2023/04/04 09:24:39;;;;;;;3.20;1.38;;;;;;;;;;5080355;28;20509;-70
2023/04/04 09:27:07;;;;;;;4.05;1.38;;;;;;;;;;5089389;28;20040;-71
2023/04/04 09:29:33;;;;;;;2.03;1.13;;;;;;;;;;5081373;28;20196;-71
2023/04/04 09:31:59;;;;;;;;;;;;;;;;;;5081659;28;20119;-71
2023/04/04 09:34:25;;;;;;;2.28;1.00;;;;;;;;;;5065042;28;20054;-71
2023/04/04 09:36:52;;;;;;;;;;;;;;;;;;5080643;28;20487;-71
2023/04/04 09:39:19;;;;;;;3.55;1.40;;;;;;;;;;5087049;28;19927;-71
2023/04/04 09:41:46;;;;;;;3.92;1.17;;;;;;;;;;5089024;28;20039;-70
2023/04/04 09:44:13;;;;;;;1.75;1.00;;;;;;;;;;5061842;28;20036;-71
2023/04/04 09:46:39;;;;;;;1.88;0.80;;;;;;;;;;5087935;28;20044;-71
2023/04/04 09:49:10;;;;;;;3.17;1.30;;;;;;;;;;5071043;28;20126;-71
2023/04/04 09:51:37;;;;;;;3.05;1.13;;;;;;;;;;5073454;28;20067;-71
2023/04/04 09:54:05;;;;;;;2.47;0.95;;;;;;;;;;5082109;28;20048;-70
2023/04/04 09:56:35;;;;;;;2.65;1.23;;;;;;;;;;5087603;28;20443;-71
2023/04/04 09:59:01;;;;;;;3.38;1.60;;;;;;;;;;5080653;28;20392;-70
2023/04/04 10:01:28;;;;;;;2.58;1.20;;;;;;;;;;5070910;28;20187;-70
2023/04/04 10:03:54;;;;;;;4.20;1.85;;;;;;;;;;5082233;28;20491;-70
2023/04/04 10:06:21;;;;;;;;;;;;;;;;;;5085677;28;20395;-70
2023/04/04 10:08:47;;;;;;;2.47;1.17;;;;;;;;;;5061305;28;20286;-70
2023/04/04 10:11:27;;;;;;;4.20;1.73;;;;;;;;;;5088322;28;20059;-70
2023/04/04 10:13:53;;;;;;;3.70;1.60;;;;;;;;;;5068038;28;20044;-70
2023/04/04 10:16:20;;;;;;;3.60;1.20;;;;;;;;;;5071226;28;20043;-70
2023/04/04 10:18:47;;;;;;;3.45;1.10;;;;;;;;;;5071409;28;20488;-70
2023/04/04 10:21:14;;;;;;;3.95;1.60;;;;;;;;;;5056079;28;20479;-70
2023/04/04 10:23:41;;;;;;;5.15;1.40;;;;;;;;;;5075663;28;20105;-69
2023/04/04 10:26:07;;;;;;;2.38;1.30;;;;;;;;;;5079969;28;20045;-70
2023/04/04 10:28:33;;;;;;;3.25;1.25;;;;;;;;;;5073008;28;20040;-70
2023/04/04 10:31:06;;;;;;;1.92;1.20;;;;;;;;;;5071414;28;20123;-71
2023/04/04 10:33:55;;;;;;;2.92;1.60;;;;;;;;;;5084900;28;20047;-70
2023/04/04 10:36:27;;;;;;;3.28;1.58;;;;;;;;;;5067768;28;20048;-71
2023/04/04 10:39:13;;;;;;;2.50;1.27;;;;;;;;;;5076608;28;20040;-71
2023/04/04 10:41:40;;;;;;;3.38;1.75;;;;;;;;;;5059762;28;20043;-71
2023/04/04 10:44:13;;;;;;;6.07;1.85;;;;;;;;;;5062338;28;20048;-71
2023/04/04 10:46:41;;;;;;;3.67;1.50;;;;;;;;;;5079939;28;20075;-71
2023/04/04 10:49:07;;;;;;;3.50;1.60;;;;;;;;;;5058292;28;20036;-71
2023/04/04 10:51:33;;;;;;;2.40;1.40;;;;;;;;;;5071113;28;20418;-71
2023/04/04 10:54:00;;;;;;;3.05;1.80;;;;;;;;;;5079939;28;20056;-71
2023/04/04 10:56:26;;;;;;;4.68;1.60;;;;;;;;;;5070246;28;20047;-70
2023/04/04 10:58:52;;;;;;;;;;;;;;;;;;5081607;28;20483;-71
2023/04/04 11:01:20;;;;;;;3.08;1.67;;;;;;;;;;5069647;28;20302;-71
2023/04/04 11:04:05;;;;;;;4.65;1.80;;;;;;;;;;5069962;28;20048;-71
2023/04/04 11:06:50;;;;;;;2.88;1.67;;;;;;;;;;5067329;28;20052;-71
2023/04/04 11:09:36;;;;;;;2.60;1.27;;;;;;;;;;5074304;28;20140;-71
2023/04/04 11:12:13;;;;;;;3.85;2.10;;;;;;;;;;5071859;28;20082;-71
2023/04/04 11:14:53;;;;;;;3.15;1.50;;;;;;;;;;5080551;28;20040;-71
2023/04/04 11:17:36;;;;;;;3.40;1.60;;;;;;;;;;5081959;28;20082;-71
2023/04/04 11:20:02;;;;;;;3.85;1.60;;;;;;;;;;5077432;28;20128;-70
2023/04/04 11:22:29;;;;;;;3.50;1.40;;;;;;;;;;5075764;28;20431;-71
2023/04/04 11:25:00;;;;;;;4.05;1.63;;;;;;;;;;5073813;28;20040;-70
2023/04/04 11:27:26;;;;;;;2.88;1.40;;;;;;;;;;5079248;28;20043;-70
2023/04/04 11:29:52;;;;;;;4.53;1.67;;;;;;;;;;5081111;28;20119;-70
2023/04/04 11:32:44;;;;;;;4.30;1.80;;;;;;;;;;5069230;28;20041;-70
2023/04/04 11:35:10;;;;;;;4.53;2.13;;;;;;;;;;5076482;28;20048;-70
2023/04/04 11:37:43;;;;;;;3.20;1.63;;;;;;;;;;5072181;28;20094;-70
2023/04/04 11:40:12;;;;;;;2.55;1.40;;;;;;;;;;5079560;28;20089;-70
2023/04/04 11:42:38;;;;;;;2.85;1.50;;;;;;;;;;5068845;28;20139;-70
2023/04/04 11:45:06;;;;;;;5.30;1.80;;;;;;;;;;5079681;28;20047;-71
2023/04/04 11:47:32;;;;;;;5.13;1.98;;;;;;;;;;5082653;28;20046;-71
2023/04/04 11:49:59;;;;;;;;;;;;;;;;;;5081613;28;20495;-71
2023/04/04 11:52:25;;;;;;;2.58;1.30;;;;;;;;;;5077308;28;20359;-70
2023/04/04 11:54:51;;;;;;;4.00;1.50;;;;;;;;;;5081131;28;20035;-70
2023/04/04 11:57:18;;;;;;;1.77;1.13;;;;;;;;;;5070125;28;20051;-70
2023/04/04 11:59:50;;;;;;;4.68;1.38;;;;;;;;;;5074980;28;20045;-70
2023/04/04 12:02:20;;;;;;;2.10;1.35;;;;;;;;;;5083078;28;20450;-70
2023/04/04 12:04:47;;;;;;;2.60;1.33;;;;;;;;;;5074863;28;20317;-70
2023/04/04 12:07:16;;;;;;;2.33;1.35;;;;;;;;;;5086922;28;20079;-70
2023/04/04 12:09:43;;;;;;;3.03;1.77;;;;;;;;;;5074450;28;20454;-70
2023/04/04 12:12:13;;;;;;;3.47;1.55;;;;;;;;;;5074039;28;20059;-71
2023/04/04 12:14:39;;;;;;;3.63;1.60;;;;;;;;;;5079743;28;20068;-70
2023/04/04 12:17:05;;;;;;;;;;;;;;;;;;5086102;28;20044;-70
2023/04/04 12:19:36;;;;;;;3.60;1.27;;;;;;;;;;5084026;28;19920;-70
2023/04/04 12:22:02;;;;;;;3.38;1.30;;;;;;;;;;5082220;28;20479;-70
2023/04/04 12:24:29;;;;;;;2.50;1.40;;;;;;;;;;5072719;28;20107;-70
2023/04/04 12:26:57;;;;;;;3.60;1.60;;;;;;;;;;5090673;28;20112;-70
2023/04/04 12:29:24;;;;;;;3.08;1.70;;;;;;;;;;5078271;28;20123;-71
2023/04/04 12:31:51;;;;;;;2.90;1.50;;;;;;;;;;5080110;28;20044;-71
2023/04/04 12:34:19;;;;;;;3.95;1.70;;;;;;;;;;5073380;28;20051;-71
2023/04/04 12:36:49;;;;;;;4.25;1.60;;;;;;;;;;5074102;28;20459;-71
2023/04/04 12:39:16;;;;;;;2.90;1.52;;;;;;;;;;5083201;28;20141;-71
2023/04/04 12:41:58;;;;;;;2.60;1.55;;;;;;;;;;5085099;28;20043;-71
2023/04/04 12:44:30;;;;;;;2.05;1.33;;;;;;;;;;5082432;28;20127;-70
2023/04/04 12:47:00;;;;;;;2.70;1.40;;;;;;;;;;5080590;28;20044;-71
2023/04/04 12:49:49;;;;;;;1.75;1.00;;;;;;;;;;5078269;28;20047;-72
2023/04/04 12:52:41;;;;;;;1.70;1.00;;;;;;;;;;5087302;28;20101;-71
2023/04/04 12:55:09;;;;;;;4.65;1.60;;;;;;;;;;5080512;28;20078;-72
2023/04/04 12:57:36;;;;;;;2.42;1.50;;;;;;;;;;5086029;28;20051;-72
2023/04/04 13:00:03;;;;;;;2.88;1.50;;;;;;;;;;5049311;28;20042;-72
2023/04/04 13:02:29;;;;;;;3.30;1.80;;;;;;;;;;5068559;28;20119;-72
2023/04/04 13:04:55;;;;;;;2.28;1.20;;;;;;;;;;5079960;28;20092;-72
2023/04/04 13:07:22;;;;;;;2.85;1.38;;;;;;;;;;5083446;28;20036;-72
2023/04/04 13:09:56;;;;;;;3.30;2.00;;;;;;;;;;5080313;28;20056;-71
2023/04/04 13:12:23;;;;;;;2.83;1.83;;;;;;;;;;5082641;28;20075;-71
2023/04/04 13:14:56;;;;;;;2.28;1.40;;;;;;;;;;5079760;28;20067;-71
2023/04/04 13:17:23;;;;;;;3.60;1.70;;;;;;;;;;5082302;28;20048;-71
2023/04/04 13:19:49;;;;;;;;;;;;;;;;;;5059246;28;20044;-72
2023/04/04 13:22:15;;;;;;;3.72;1.83;;;;;;;;;;5080373;28;19923;-72
2023/04/04 13:24:41;;;;;;;4.32;2.05;;;;;;;;;;5078885;28;20037;-72
2023/04/04 13:27:07;;;;;;;4.18;2.17;;;;;;;;;;5081797;28;20086;-71
2023/04/04 13:29:33;;;;;;;3.60;2.00;;;;;;;;;;5072356;28;20079;-71
2023/04/04 13:32:00;;;;;;;2.78;1.88;;;;;;;;;;5056821;28;20044;-71
2023/04/04 13:34:27;;;;;;;3.03;1.65;;;;;;;;;;5075091;28;20087;-72
2023/04/04 13:36:53;;;;;;;2.55;1.50;;;;;;;;;;5073085;28;20048;-71
2023/04/04 13:39:19;;;;;;;;;;;;;;;;;;5076221;28;20048;-72
2023/04/04 13:41:45;;;;;;;2.38;1.60;;;;;;;;;;5080038;28;19916;-72
2023/04/04 13:44:15;;;;;;;1.83;1.35;;;;;;;;;;5053748;28;20455;-72
2023/04/04 13:46:42;;;;;;;3.42;1.70;;;;;;;;;;5079146;28;20082;-72
2023/04/04 13:49:09;;;;;;;3.67;1.70;;;;;;;;;;5062285;28;20131;-73
2023/04/04 13:51:36;;;;;;;3.10;1.90;;;;;;;;;;5059920;28;20040;-73
2023/04/04 13:54:02;;;;;;;5.68;1.80;;;;;;;;;;5065151;28;20051;-73
2023/04/04 13:56:28;;;;;;;1.60;1.40;;;;;;;;;;5079992;28;20173;-73
2023/04/04 13:58:54;;;;;;;3.13;1.77;;;;;;;;;;5088898;28;20105;-73
2023/04/04 14:01:21;;;;;;;3.45;1.75;;;;;;;;;;5068985;28;20037;-72
2023/04/04 14:03:48;;;;;;;3.55;1.80;;;;;;;;;;5084280;28;20043;-73
2023/04/04 14:06:14;;;;;;;2.58;1.50;;;;;;;;;;5081161;28;20084;-72
2023/04/04 14:08:40;;;;;;;;;;;;;;;;;;5071957;28;20057;-73
2023/04/04 14:11:06;;;;;;;2.53;1.42;;;;;;;;;;5073374;28;20233;-73
2023/04/04 14:13:32;;;;;;;3.67;1.60;;;;;;;;;;5077097;28;20052;-73
2023/04/04 14:15:58;;;;;;;2.40;1.60;;;;;;;;;;5083474;28;20503;-73
2023/04/04 14:18:24;;;;;;;2.75;1.80;;;;;;;;;;5084528;28;20416;-72
2023/04/04 14:20:50;;;;;;;4.25;1.85;;;;;;;;;;5068148;28;20044;-73
2023/04/04 14:23:16;;;;;;;2.85;1.60;;;;;;;;;;5077962;28;20051;-73
2023/04/04 14:25:42;;;;;;;3.42;1.70;;;;;;;;;;5071220;28;20143;-73
2023/04/04 14:28:08;;;;;;;4.10;1.80;;;;;;;;;;5077795;28;20064;-73
2023/04/04 14:30:35;;;;;;;2.72;1.63;;;;;;;;;;5072396;28;20044;-73
2023/04/04 14:33:01;;;;;;;;;;;;;;;;;;5076700;28;20131;-72
2023/04/04 14:35:27;;;;;;;3.13;1.77;;;;;;;;;;5070887;28;20365;-72
2023/04/04 14:37:53;;;;;;;5.00;1.70;;;;;;;;;;5086212;28;20069;-73
2023/04/04 14:40:19;;;;;;;3.45;2.05;;;;;;;;;;5088175;28;20381;-73
2023/04/04 14:42:45;;;;;;;3.60;2.25;;;;;;;;;;5079779;28;20135;-73
2023/04/04 14:45:11;;;;;;;2.90;1.92;;;;;;;;;;5073048;28;20041;-73
2023/04/04 14:47:37;;;;;;;;;;;;;;;;;;5081346;28;20040;-72
2023/04/04 14:50:03;;;;;;;2.33;1.50;;;;;;;;;;5088274;28;19982;-72